Time;durP1;ratioP1;P1;durP2;ratioP2;P2;SDS_P1;SDS_P2;PMS_P1;PMS_P2;Temp;Humidity;BMP_temperature;BMP_pressure;BME280_temperature;BME280_humidity;BME280_pressure;Samples;Min_cycle;Max_cycle;Signal;HPM_P1;HPM_P2
2023/08/03 00:00:22;;;;;;;2.28;0.80;;;16.40;99.90;;;;;;4950037;28;20049;-72
2023/08/03 00:02:49;;;;;;;3.47;0.65;;;16.40;99.90;;;;;;4952405;28;20027;-73
2023/08/03 00:05:17;;;;;;;1.75;0.57;;;16.40;99.90;;;;;;4938932;28;20030;-74
2023/08/03 00:07:44;;;;;;;2.63;0.75;;;16.30;99.90;;;;;;4939122;28;20054;-73
2023/08/03 00:10:11;;;;;;;2.65;0.43;;;16.40;99.90;;;;;;4939975;28;20023;-74
2023/08/03 00:12:37;;;;;;;3.85;0.60;;;16.40;99.90;;;;;;4925835;28;20030;-74
2023/08/03 00:15:04;;;;;;;3.20;1.23;;;16.40;99.90;;;;;;4954587;28;20316;-73
2023/08/03 00:17:31;;;;;;;4.68;1.48;;;16.40;99.90;;;;;;4945606;28;20045;-74
2023/08/03 00:19:58;;;;;;;3.75;0.98;;;16.40;99.90;;;;;;4920532;28;20039;-73
2023/08/03 00:22:24;;;;;;;4.47;0.90;;;16.40;99.90;;;;;;4935784;28;20057;-73
2023/08/03 00:24:51;;;;;;;1.55;0.60;;;16.40;99.90;;;;;;4939655;28;21175;-73
2023/08/03 00:27:17;;;;;;;2.78;0.70;;;16.40;99.90;;;;;;4940272;28;20047;-73
2023/08/03 00:29:43;;;;;;;2.25;0.80;;;16.40;99.90;;;;;;4940214;28;20037;-73
2023/08/03 00:32:10;;;;;;;3.78;0.80;;;16.40;99.90;;;;;;4936969;28;20467;-72
2023/08/03 00:34:36;;;;;;;4.05;0.80;;;16.40;99.90;;;;;;4937087;28;20038;-72
2023/08/03 00:37:03;;;;;;;2.20;0.60;;;16.40;99.90;;;;;;4953215;28;20031;-72
2023/08/03 00:39:30;;;;;;;3.40;0.77;;;16.40;99.90;;;;;;4940773;28;20034;-72
2023/08/03 00:41:57;;;;;;;1.75;0.60;;;16.40;99.90;;;;;;4910021;28;20038;-72
2023/08/03 00:44:23;;;;;;;4.05;0.82;;;16.40;99.90;;;;;;4952823;28;20517;-73
2023/08/03 00:46:50;;;;;;;1.88;0.70;;;16.40;99.90;;;;;;4935856;28;20046;-72
2023/08/03 00:49:17;;;;;;;2.88;0.85;;;16.40;99.90;;;;;;4906505;28;20031;-73
2023/08/03 00:51:43;;;;;;;3.83;1.00;;;16.50;99.90;;;;;;4920163;28;20038;-72
2023/08/03 00:54:10;;;;;;;2.67;0.90;;;16.40;99.90;;;;;;4956853;28;20470;-72
2023/08/03 00:56:37;;;;;;;1.38;0.95;;;16.40;99.90;;;;;;4939198;28;20405;-72
2023/08/03 00:59:10;;;;;;;3.50;1.00;;;16.40;99.90;;;;;;4932921;28;20035;-73
2023/08/03 01:01:38;;;;;;;2.42;1.20;;;16.50;99.90;;;;;;4951846;28;20065;-72
2023/08/03 01:04:04;;;;;;;5.30;1.17;;;16.50;99.90;;;;;;4922067;28;20213;-72
2023/08/03 01:06:31;;;;;;;2.08;1.23;;;16.50;99.90;;;;;;4948246;28;20059;-71
2023/08/03 01:08:59;;;;;;;4.57;1.58;;;16.50;99.90;;;;;;4938555;28;20030;-72
2023/08/03 01:11:28;;;;;;;3.15;1.35;;;16.50;99.90;;;;;;4906870;28;20039;-72
2023/08/03 01:13:56;;;;;;;5.25;2.55;;;16.50;99.90;;;;;;4949439;28;20038;-73
2023/08/03 01:16:23;;;;;;;3.60;2.17;;;16.50;99.90;;;;;;4924361;28;20553;-73
2023/08/03 01:18:49;;;;;;;5.18;3.45;;;16.50;99.90;;;;;;4921876;28;20061;-72
2023/08/03 01:21:18;;;;;;;3.42;3.13;;;16.50;99.90;;;;;;4935736;28;20046;-72
2023/08/03 01:23:45;;;;;;;8.93;4.15;;;16.50;99.90;;;;;;4923800;28;20482;-72
2023/08/03 01:26:12;;;;;;;4.38;2.97;;;16.50;99.90;;;;;;4924451;28;20802;-73
2023/08/03 01:28:38;;;;;;;5.40;3.03;;;16.50;99.90;;;;;;4937040;28;20030;-73
2023/08/03 01:31:06;;;;;;;4.82;2.65;;;16.50;99.90;;;;;;4952751;28;20034;-73
2023/08/03 01:33:32;;;;;;;8.25;2.42;;;16.50;99.90;;;;;;4941270;28;20030;-73
2023/08/03 01:35:59;;;;;;;8.20;1.67;;;16.50;99.90;;;;;;4929308;28;20050;-73
2023/08/03 01:38:25;;;;;;;2.33;1.00;;;16.50;99.90;;;;;;4945299;28;20053;-73
2023/08/03 01:40:53;;;;;;;2.80;1.00;;;16.50;99.90;;;;;;4943798;28;20062;-73
2023/08/03 01:43:21;;;;;;;3.70;1.00;;;16.50;99.90;;;;;;4958150;28;20509;-73
2023/08/03 01:45:48;;;;;;;4.22;1.15;;;16.40;99.90;;;;;;4923716;28;20569;-73
2023/08/03 01:48:14;;;;;;;4.95;1.23;;;16.40;99.90;;;;;;4957362;28;20038;-73
2023/08/03 01:50:40;;;;;;;2.83;0.90;;;16.40;99.90;;;;;;4959413;28;20046;-73
2023/08/03 01:53:07;;;;;;;2.20;0.95;;;16.50;99.90;;;;;;4944206;28;20038;-73
2023/08/03 01:55:33;;;;;;;8.50;1.38;;;16.50;99.90;;;;;;4965206;28;20183;-73
2023/08/03 01:57:59;;;;;;;2.85;1.10;;;16.50;99.90;;;;;;4953513;28;20027;-72
2023/08/03 02:00:26;;;;;;;4.85;1.52;;;16.50;99.90;;;;;;4946432;28;20050;-73
2023/08/03 02:02:52;;;;;;;7.60;2.00;;;16.50;99.90;;;;;;4959326;28;20034;-73
2023/08/03 02:05:22;;;;;;;5.75;1.83;;;16.50;99.90;;;;;;4971736;28;20038;-73
2023/08/03 02:07:53;;;;;;;6.22;2.63;;;16.50;99.90;;;;;;4938444;28;20035;-73
2023/08/03 02:10:22;;;;;;;6.95;2.38;;;16.60;99.90;;;;;;4949414;28;20470;-73
2023/08/03 02:12:48;;;;;;;11.13;4.68;;;16.60;99.90;;;;;;4929653;28;20379;-73
2023/08/03 02:15:15;;;;;;;11.23;4.93;;;16.60;99.90;;;;;;4922745;28;20046;-73
2023/08/03 02:17:43;;;;;;;8.07;3.50;;;16.70;99.90;;;;;;4927114;28;20046;-74
2023/08/03 02:20:10;;;;;;;8.95;4.55;;;16.70;99.90;;;;;;4940611;28;20078;-73
2023/08/03 02:22:37;;;;;;;14.85;5.45;;;16.70;99.90;;;;;;4944276;28;20050;-73
2023/08/03 02:25:04;;;;;;;11.75;4.20;;;16.70;99.90;;;;;;4943379;28;20069;-73
2023/08/03 02:27:31;;;;;;;11.55;5.68;;;16.80;99.90;;;;;;4918676;28;20414;-74
2023/08/03 02:29:57;;;;;;;16.23;6.28;;;16.80;99.90;;;;;;4936351;28;20272;-73
2023/08/03 02:32:25;;;;;;;10.82;5.30;;;16.80;99.90;;;;;;4924555;28;20402;-73
2023/08/03 02:34:51;;;;;;;8.50;4.03;;;16.80;99.90;;;;;;4925469;28;20050;-73
2023/08/03 02:37:18;;;;;;;11.35;5.32;;;16.80;99.90;;;;;;4941148;28;20415;-74
2023/08/03 02:39:45;;;;;;;6.82;4.00;;;16.80;99.90;;;;;;4942600;28;20053;-74
2023/08/03 02:42:11;;;;;;;11.80;5.28;;;16.90;99.90;;;;;;4927865;28;20045;-73
2023/08/03 02:44:41;;;;;;;9.13;5.07;;;16.90;99.90;;;;;;4946375;28;20030;-74
2023/08/03 02:47:10;;;;;;;10.65;5.53;;;16.90;99.90;;;;;;4941965;28;20478;-74
2023/08/03 02:49:37;;;;;;;10.48;5.18;;;16.90;99.90;;;;;;4926946;28;20042;-74
2023/08/03 02:52:06;;;;;;;9.63;5.07;;;16.90;99.90;;;;;;4942738;28;20041;-74
2023/08/03 02:54:43;;;;;;;6.07;4.38;;;16.90;99.90;;;;;;4966553;28;21112;-73
2023/08/03 02:57:09;;;;;;;13.30;6.22;;;16.90;99.90;;;;;;4935991;28;20043;-73
2023/08/03 02:59:36;;;;;;;16.05;5.93;;;16.90;99.90;;;;;;4952993;28;20489;-74
2023/08/03 03:02:02;;;;;;;11.45;5.35;;;16.90;99.90;;;;;;4923513;28;20963;-74
2023/08/03 03:04:34;;;;;;;10.77;6.60;;;16.90;99.90;;;;;;4939118;28;20041;-74
2023/08/03 03:07:01;;;;;;;12.48;5.18;;;16.90;99.90;;;;;;4940448;28;20046;-73
2023/08/03 03:09:28;;;;;;;6.10;3.60;;;16.90;99.90;;;;;;4926103;28;20449;-73
2023/08/03 03:11:56;;;;;;;11.57;4.70;;;16.90;99.90;;;;;;4937883;28;20043;-74
2023/08/03 03:14:26;;;;;;;5.15;2.58;;;16.90;99.90;;;;;;4961551;28;20027;-73
2023/08/03 03:16:53;;;;;;;5.15;2.92;;;16.90;99.90;;;;;;4939152;28;20342;-74
2023/08/03 03:19:21;;;;;;;7.82;2.55;;;16.90;99.90;;;;;;4938584;28;20066;-74
2023/08/03 03:21:50;;;;;;;10.57;5.10;;;16.90;99.90;;;;;;4926335;28;20404;-74
2023/08/03 03:24:17;;;;;;;8.02;4.40;;;16.90;99.90;;;;;;4924243;28;20707;-74
2023/08/03 03:26:43;;;;;;;4.93;3.20;;;16.90;99.90;;;;;;4957192;28;20034;-73
2023/08/03 03:29:09;;;;;;;7.10;3.85;;;16.90;99.90;;;;;;4925189;28;20042;-73
2023/08/03 03:31:36;;;;;;;6.65;3.72;;;16.90;99.90;;;;;;4940131;28;20038;-73
2023/08/03 03:34:04;;;;;;;7.88;4.15;;;16.90;99.90;;;;;;4948287;28;20045;-74
2023/08/03 03:36:31;;;;;;;6.20;3.83;;;16.90;99.90;;;;;;4925046;28;20098;-73
2023/08/03 03:38:57;;;;;;;6.90;3.30;;;16.90;99.90;;;;;;4954481;28;20043;-73
2023/08/03 03:41:24;;;;;;;6.45;3.63;;;16.90;99.90;;;;;;4921940;28;20479;-73
2023/08/03 03:43:50;;;;;;;5.60;3.35;;;16.90;99.90;;;;;;4924722;28;20038;-74
2023/08/03 03:46:17;;;;;;;4.82;2.20;;;16.80;99.90;;;;;;4939250;28;20035;-74
2023/08/03 03:48:43;;;;;;;3.33;1.38;;;16.80;99.90;;;;;;4921411;28;20035;-73
2023/08/03 03:51:10;;;;;;;2.40;1.23;;;16.80;99.90;;;;;;4952915;28;20065;-73
2023/08/03 03:53:38;;;;;;;2.72;1.40;;;16.80;99.90;;;;;;4922550;28;20030;-72
2023/08/03 03:56:10;;;;;;;2.83;1.42;;;16.90;99.90;;;;;;4932691;28;20039;-73
2023/08/03 03:58:37;;;;;;;3.10;1.50;;;16.80;99.90;;;;;;4954277;28;20035;-73
2023/08/03 04:01:04;;;;;;;3.40;2.13;;;16.80;99.90;;;;;;4923473;28;20043;-73
2023/08/03 04:03:31;;;;;;;4.25;1.98;;;16.80;99.90;;;;;;4938092;28;20034;-73
2023/08/03 04:06:02;;;;;;;2.08;1.77;;;16.80;99.90;;;;;;4925543;28;20413;-73
2023/08/03 04:08:29;;;;;;;3.63;2.33;;;16.80;99.90;;;;;;4950937;28;20502;-73
2023/08/03 04:10:55;;;;;;;4.70;3.33;;;16.80;99.90;;;;;;4939923;28;20046;-73
2023/08/03 04:13:22;;;;;;;6.13;5.32;;;16.70;99.90;;;;;;4936226;28;20034;-73
2023/08/03 04:15:50;;;;;;;3.10;2.20;;;16.70;99.90;;;;;;4923130;28;20041;-73
2023/08/03 04:18:17;;;;;;;6.05;3.22;;;16.70;99.90;;;;;;4904780;28;20054;-73
2023/08/03 04:20:44;;;;;;;4.68;3.40;;;16.70;99.90;;;;;;4939304;28;21403;-74
2023/08/03 04:23:10;;;;;;;10.48;4.70;;;16.60;99.90;;;;;;4934989;28;20439;-74
2023/08/03 04:25:37;;;;;;;5.45;4.07;;;16.60;99.90;;;;;;4938530;28;20042;-74
2023/08/03 04:28:24;;;;;;;7.70;3.83;;;16.60;99.90;;;;;;4952842;28;20047;-74
2023/08/03 04:30:50;;;;;;;8.77;4.38;;;16.60;99.90;;;;;;4936488;28;20038;-74
2023/08/03 04:33:17;;;;;;;7.30;3.58;;;16.60;99.90;;;;;;4923238;28;20043;-73
2023/08/03 04:35:43;;;;;;;10.93;5.18;;;16.60;99.90;;;;;;4921964;28;20449;-74
2023/08/03 04:38:32;;;;;;;14.70;5.55;;;16.70;99.90;;;;;;4960101;28;20494;-74
2023/08/03 04:41:02;;;;;;;7.25;5.32;;;16.60;99.90;;;;;;4959939;28;20486;-73
2023/08/03 04:43:30;;;;;;;11.60;7.10;;;16.60;99.90;;;;;;4935220;28;20038;-75
2023/08/03 04:45:56;;;;;;;8.00;4.43;;;16.60;99.90;;;;;;4936384;28;20039;-72
2023/08/03 04:48:23;;;;;;;5.85;4.25;;;16.60;99.90;;;;;;4923068;28;20043;-72
2023/08/03 04:50:50;;;;;;;9.23;6.00;;;16.70;99.90;;;;;;4936680;28;20034;-73
2023/08/03 04:53:18;;;;;;;10.00;5.32;;;16.70;99.90;;;;;;4919583;28;20023;-73
2023/08/03 04:55:45;;;;;;;5.60;4.68;;;16.70;99.90;;;;;;4936506;28;20034;-72
2023/08/03 04:58:12;;;;;;;5.13;2.78;;;16.70;99.90;;;;;;4955930;28;20674;-74
2023/08/03 05:00:43;;;;;;;8.15;3.90;;;16.70;99.90;;;;;;4937999;28;20482;-73
2023/08/03 05:03:09;;;;;;;7.22;3.60;;;16.70;99.90;;;;;;4937122;28;20338;-74
2023/08/03 05:05:36;;;;;;;5.22;2.42;;;16.70;99.90;;;;;;4935080;28;20034;-75
2023/08/03 05:08:02;;;;;;;9.40;3.30;;;16.70;99.90;;;;;;4933807;28;20030;-73
2023/08/03 05:10:29;;;;;;;5.63;2.42;;;16.60;99.90;;;;;;4920854;28;20046;-73
2023/08/03 05:12:55;;;;;;;9.35;3.00;;;16.70;99.90;;;;;;4938935;28;20027;-74
2023/08/03 05:15:22;;;;;;;10.10;2.65;;;16.70;99.90;;;;;;4922175;28;20035;-74
2023/08/03 05:17:49;;;;;;;6.97;2.40;;;16.70;99.90;;;;;;4940597;28;20079;-74
2023/08/03 05:20:16;;;;;;;4.75;1.77;;;16.70;99.90;;;;;;4938975;28;20042;-73
2023/08/03 05:22:44;;;;;;;5.00;1.80;;;16.70;99.90;;;;;;4920923;28;20042;-73
2023/08/03 05:25:10;;;;;;;6.05;1.92;;;16.70;99.90;;;;;;4934061;28;20042;-74
2023/08/03 05:27:36;;;;;;;13.20;2.60;;;16.70;99.90;;;;;;4919206;28;20036;-73
2023/08/03 05:30:03;;;;;;;11.43;2.50;;;16.70;99.90;;;;;;4954069;28;20047;-74
2023/08/03 05:32:31;;;;;;;5.47;2.10;;;16.70;99.90;;;;;;4936808;28;20077;-74
2023/08/03 05:34:57;;;;;;;6.43;1.80;;;16.70;99.90;;;;;;4954346;28;20026;-74
2023/08/03 05:37:24;;;;;;;7.35;1.67;;;16.70;99.90;;;;;;4936408;28;20047;-74
2023/08/03 05:39:50;;;;;;;6.93;1.77;;;16.70;99.90;;;;;;4964080;28;20053;-74
2023/08/03 05:42:17;;;;;;;3.88;1.20;;;16.70;99.90;;;;;;4936676;28;20043;-74
2023/08/03 05:44:46;;;;;;;5.25;1.38;;;16.70;99.90;;;;;;4938791;28;20035;-74
2023/08/03 05:47:17;;;;;;;7.97;1.45;;;16.80;99.90;;;;;;4933104;28;20036;-73
2023/08/03 05:49:43;;;;;;;6.00;1.20;;;16.80;99.90;;;;;;4935648;28;20099;-74
2023/08/03 05:52:10;;;;;;;2.28;0.93;;;16.80;99.90;;;;;;4952847;28;20035;-74
2023/08/03 05:54:38;;;;;;;4.70;1.45;;;16.80;99.90;;;;;;4954477;28;20035;-73
2023/08/03 05:57:04;;;;;;;5.10;1.88;;;16.80;99.90;;;;;;4964485;28;20035;-73
2023/08/03 05:59:35;;;;;;;5.60;1.20;;;16.80;99.90;;;;;;4938428;28;20043;-73
2023/08/03 06:02:03;;;;;;;3.85;1.40;;;16.80;99.90;;;;;;4949592;28;20445;-74
2023/08/03 06:04:29;;;;;;;8.95;1.55;;;16.80;99.90;;;;;;4949964;28;20045;-73
2023/08/03 06:06:56;;;;;;;4.55;1.40;;;16.70;99.90;;;;;;4937534;28;20061;-74
2023/08/03 06:09:22;;;;;;;6.00;1.85;;;16.70;99.90;;;;;;4951634;28;20041;-74
2023/08/03 06:11:51;;;;;;;5.38;1.38;;;16.70;99.90;;;;;;4921039;28;20037;-74
2023/08/03 06:14:18;;;;;;;9.00;2.00;;;16.70;99.90;;;;;;4956733;28;20082;-73
2023/08/03 06:16:44;;;;;;;6.32;2.03;;;16.70;99.90;;;;;;4937479;28;20487;-73
2023/08/03 06:19:10;;;;;;;5.32;1.23;;;16.70;99.90;;;;;;4939063;28;20066;-73
2023/08/03 06:21:37;;;;;;;7.22;2.00;;;16.80;99.90;;;;;;4947723;28;20043;-73
2023/08/03 06:24:03;;;;;;;7.47;2.20;;;16.80;99.90;;;;;;4948290;28;20707;-73
2023/08/03 06:26:36;;;;;;;10.57;2.65;;;16.80;99.90;;;;;;4944768;28;20046;-73
2023/08/03 06:29:05;;;;;;;6.38;1.95;;;16.80;99.90;;;;;;4940803;28;20034;-73
2023/08/03 06:31:37;;;;;;;7.45;2.00;;;16.80;99.90;;;;;;4963133;28;20042;-73
2023/08/03 06:34:04;;;;;;;12.38;2.55;;;16.70;99.90;;;;;;4961411;28;20031;-73
2023/08/03 06:36:30;;;;;;;6.82;1.92;;;16.80;99.90;;;;;;4956303;28;20027;-73
2023/08/03 06:38:58;;;;;;;5.32;1.50;;;16.70;99.90;;;;;;4957878;28;20030;-72
2023/08/03 06:41:26;;;;;;;6.05;1.88;;;16.70;99.90;;;;;;4957198;28;20589;-73
2023/08/03 06:43:53;;;;;;;5.15;1.38;;;16.70;99.90;;;;;;4930393;28;20394;-73
2023/08/03 06:46:20;;;;;;;5.85;1.52;;;16.80;99.90;;;;;;4958569;28;20061;-72
2023/08/03 06:48:47;;;;;;;7.72;1.92;;;16.70;99.90;;;;;;4958798;28;20038;-72
2023/08/03 06:51:13;;;;;;;8.45;1.75;;;16.70;99.90;;;;;;4956241;28;20042;-73
2023/08/03 06:53:40;;;;;;;5.60;1.65;;;16.80;99.90;;;;;;4957315;28;20046;-73
2023/08/03 06:56:07;;;;;;;7.43;1.95;;;16.80;99.90;;;;;;4955706;28;20046;-73
2023/08/03 06:58:33;;;;;;;11.00;3.97;;;16.80;99.90;;;;;;4939636;28;20466;-73
2023/08/03 07:01:00;;;;;;;13.40;3.13;;;16.80;99.90;;;;;;4957794;28;20046;-73
2023/08/03 07:03:26;;;;;;;9.63;2.53;;;16.80;99.90;;;;;;4932847;28;20039;-72
2023/08/03 07:05:53;;;;;;;6.75;1.55;;;16.80;99.90;;;;;;4922144;28;20039;-73
2023/08/03 07:08:20;;;;;;;6.20;1.63;;;16.80;99.90;;;;;;4939441;28;20045;-73
2023/08/03 07:10:46;;;;;;;8.70;1.75;;;16.80;99.90;;;;;;4940177;28;20041;-73
2023/08/03 07:13:15;;;;;;;9.63;2.20;;;16.80;99.90;;;;;;4939533;28;20043;-73
2023/08/03 07:15:41;;;;;;;8.23;1.83;;;16.90;99.90;;;;;;4948558;28;20742;-74
2023/08/03 07:18:09;;;;;;;8.00;2.05;;;16.90;99.90;;;;;;4934609;28;20418;-74
2023/08/03 07:20:36;;;;;;;9.07;3.75;;;16.90;99.90;;;;;;4936566;28;20489;-74
2023/08/03 07:23:03;;;;;;;9.05;2.40;;;17.00;99.90;;;;;;4953905;28;20035;-74
2023/08/03 07:25:32;;;;;;;7.07;2.13;;;17.00;99.90;;;;;;4934986;28;20046;-73
2023/08/03 07:27:59;;;;;;;10.20;2.20;;;17.00;99.90;;;;;;4939802;28;20034;-73
2023/08/03 07:30:25;;;;;;;5.95;1.50;;;16.90;99.90;;;;;;4954143;28;20039;-73
2023/08/03 07:32:51;;;;;;;6.15;1.38;;;17.00;99.90;;;;;;4946354;28;20494;-72
2023/08/03 07:35:18;;;;;;;5.63;1.50;;;17.00;99.90;;;;;;4955045;28;20454;-73
2023/08/03 07:37:44;;;;;;;3.65;1.20;;;17.00;99.90;;;;;;4937828;28;20035;-73
2023/08/03 07:40:11;;;;;;;5.15;1.20;;;16.90;99.90;;;;;;4955324;28;20034;-72
2023/08/03 07:42:37;;;;;;;7.10;1.77;;;17.00;99.90;;;;;;4958039;28;20505;-72
2023/08/03 07:45:04;;;;;;;7.50;1.30;;;17.00;99.90;;;;;;4939053;28;20026;-72
2023/08/03 07:47:31;;;;;;;5.72;1.23;;;17.00;99.90;;;;;;4935830;28;20031;-72
2023/08/03 07:49:58;;;;;;;3.83;1.25;;;17.00;99.90;;;;;;4955334;28;20038;-72
2023/08/03 07:52:24;;;;;;;8.30;1.65;;;17.00;99.90;;;;;;4954529;28;20050;-72
2023/08/03 07:54:54;;;;;;;6.05;1.70;;;17.10;99.90;;;;;;4966184;28;20031;-72
2023/08/03 07:57:21;;;;;;;3.28;1.30;;;17.20;99.90;;;;;;4924158;28;20494;-73
2023/08/03 07:59:51;;;;;;;8.38;1.52;;;17.20;99.90;;;;;;4937143;28;20042;-72
2023/08/03 08:02:18;;;;;;;4.60;1.27;;;17.20;99.90;;;;;;4951639;28;20035;-73
2023/08/03 08:04:51;;;;;;;9.60;2.00;;;17.20;99.90;;;;;;4935649;28;20046;-73
2023/08/03 08:07:18;;;;;;;5.20;1.50;;;17.20;99.90;;;;;;4963565;28;20042;-73
2023/08/03 08:09:44;;;;;;;2.65;1.05;;;17.20;99.90;;;;;;4953213;28;20039;-73
2023/08/03 08:12:11;;;;;;;7.88;1.70;;;17.20;99.90;;;;;;4952568;28;20488;-73
2023/08/03 08:14:37;;;;;;;5.35;1.15;;;17.20;99.90;;;;;;4934779;28;20502;-72
2023/08/03 08:17:04;;;;;;;5.78;1.55;;;17.20;99.90;;;;;;4938291;28;20026;-73
2023/08/03 08:19:31;;;;;;;5.40;2.00;;;17.20;99.90;;;;;;4964212;28;20030;-74
2023/08/03 08:21:58;;;;;;;6.20;2.35;;;17.20;99.90;;;;;;4919373;28;20478;-73
2023/08/03 08:24:24;;;;;;;7.40;4.60;;;17.20;99.90;;;;;;4953933;28;20050;-72
2023/08/03 08:26:51;;;;;;;4.28;2.50;;;17.20;99.90;;;;;;4939510;28;20038;-74
2023/08/03 08:29:17;;;;;;;6.10;1.70;;;17.30;99.90;;;;;;4907318;28;20031;-74
2023/08/03 08:31:43;;;;;;;4.57;1.60;;;17.30;99.90;;;;;;4924412;28;20038;-73
2023/08/03 08:34:09;;;;;;;6.90;1.63;;;17.30;99.90;;;;;;4951056;28;20043;-73
2023/08/03 08:36:36;;;;;;;6.03;2.03;;;17.30;99.90;;;;;;4938855;28;20035;-73
2023/08/03 08:39:03;;;;;;;4.70;1.95;;;17.30;99.90;;;;;;4922670;28;20046;-73
2023/08/03 08:41:30;;;;;;;2.65;1.13;;;17.30;99.90;;;;;;4939420;28;20049;-73
2023/08/03 08:43:56;;;;;;;8.40;2.15;;;17.40;99.90;;;;;;4950415;28;20383;-73
2023/08/03 08:46:23;;;;;;;4.75;1.95;;;17.50;99.90;;;;;;4936468;28;20035;-73
2023/08/03 08:48:49;;;;;;;4.05;1.55;;;17.60;99.90;;;;;;4935245;28;20042;-73
2023/08/03 08:51:19;;;;;;;5.20;2.40;;;17.70;99.90;;;;;;4935795;28;20393;-74
2023/08/03 08:53:45;;;;;;;4.57;1.63;;;17.70;99.90;;;;;;4957217;28;20474;-73
2023/08/03 08:56:13;;;;;;;7.47;1.83;;;17.70;99.90;;;;;;4934146;28;20050;-73
2023/08/03 08:58:39;;;;;;;2.83;1.25;;;17.70;99.90;;;;;;4919996;28;20043;-73
2023/08/03 09:01:05;;;;;;;4.40;2.20;;;17.80;99.90;;;;;;4920468;28;20043;-73
2023/08/03 09:03:51;;;;;;;6.70;2.70;;;17.90;99.90;;;;;;4936316;28;21015;-73
2023/08/03 09:06:19;;;;;;;6.65;2.55;;;17.90;99.90;;;;;;4941433;28;20038;-73
2023/08/03 09:08:52;;;;;;;5.55;2.38;;;18.00;99.90;;;;;;4933085;28;20034;-73
2023/08/03 09:11:35;;;;;;;27.45;3.75;;;18.20;99.90;;;;;;4951541;28;20041;-74
2023/08/03 09:14:05;;;;;;;8.73;4.32;;;18.70;99.90;;;;;;4950782;28;20030;-73
2023/08/03 09:16:31;;;;;;;5.07;2.58;;;19.10;99.90;;;;;;4934504;28;20031;-73
2023/08/03 09:18:58;;;;;;;8.00;2.50;;;19.10;99.90;;;;;;4947572;28;20038;-73
2023/08/03 09:21:25;;;;;;;4.97;1.77;;;19.00;99.90;;;;;;4966503;28;20046;-73
2023/08/03 09:23:52;;;;;;;5.43;2.30;;;18.90;99.90;;;;;;4922194;28;20050;-73
2023/08/03 09:26:24;;;;;;;6.35;2.88;;;18.90;99.90;;;;;;4952819;28;20099;-73
2023/08/03 09:28:51;;;;;;;;;;;19.00;99.90;;;;;;4952541;28;20034;-74
2023/08/03 09:31:24;;;;;;;4.53;2.20;;;19.00;99.90;;;;;;4955355;28;20365;-73
2023/08/03 09:34:00;;;;;;;4.07;2.50;;;19.30;99.90;;;;;;4947984;28;20043;-73
2023/08/03 09:36:27;;;;;;;4.35;2.58;;;19.50;99.90;;;;;;4935936;28;20524;-73
2023/08/03 09:39:12;;;;;;;5.32;3.70;;;19.70;99.90;;;;;;4918927;28;20035;-73
2023/08/03 09:41:39;;;;;;;7.32;4.65;;;19.80;99.90;;;;;;4951517;28;20486;-73
2023/08/03 09:44:07;;;;;;;6.60;4.30;;;20.00;99.90;;;;;;4936167;28;20039;-73
2023/08/03 09:46:34;;;;;;;6.45;3.40;;;20.20;99.90;;;;;;4931588;28;20114;-73
2023/08/03 09:49:01;;;;;;;8.57;2.92;;;20.60;99.90;;;;;;4954624;28;20067;-74
2023/08/03 09:51:29;;;;;;;5.43;2.72;;;20.80;99.90;;;;;;4935168;28;20057;-77
2023/08/03 09:54:07;;;;;;;7.70;2.85;;;20.70;99.90;;;;;;4936692;28;20038;-74
2023/08/03 09:56:37;;;;;;;5.43;2.78;;;20.70;99.90;;;;;;4926847;28;20025;-74
2023/08/03 09:59:08;;;;;;;5.93;2.70;;;20.70;99.90;;;;;;4958128;28;20187;-74
2023/08/03 10:01:40;;;;;;;6.88;2.75;;;21.00;99.90;;;;;;4922801;28;20038;-74
2023/08/03 10:04:12;;;;;;;6.72;2.97;;;21.10;99.90;;;;;;4926302;28;20030;-75
2023/08/03 10:06:42;;;;;;;7.00;1.92;;;21.30;99.90;;;;;;4949341;28;20031;-74
2023/08/03 10:09:12;;;;;;;4.53;1.67;;;21.40;99.90;;;;;;4936927;28;20446;-73
2023/08/03 10:11:46;;;;;;;7.75;1.92;;;21.50;99.90;;;;;;4955322;28;20035;-72
2023/08/03 10:14:15;;;;;;;6.97;1.95;;;21.20;99.90;;;;;;4950320;28;20046;-73
2023/08/03 10:16:43;;;;;;;5.13;1.63;;;20.70;99.90;;;;;;4939664;28;20382;-73
2023/08/03 10:19:09;;;;;;;5.93;1.35;;;20.30;99.90;;;;;;4941636;28;20433;-73
2023/08/03 10:21:36;;;;;;;4.03;1.00;;;20.00;99.90;;;;;;4938253;28;20039;-73
2023/08/03 10:24:15;;;;;;;2.92;1.35;;;19.80;99.90;;;;;;4920272;28;20046;-73
2023/08/03 10:26:42;;;;;;;5.13;1.67;;;19.90;99.90;;;;;;4943168;28;20043;-73
2023/08/03 10:29:09;;;;;;;5.63;2.00;;;20.10;99.90;;;;;;4967819;28;20023;-73
2023/08/03 10:31:53;;;;;;;3.72;1.67;;;20.40;99.90;;;;;;4937004;28;20074;-73
2023/08/03 10:34:25;;;;;;;5.90;1.70;;;20.80;99.90;;;;;;4940550;28;20035;-73
2023/08/03 10:36:53;;;;;;;5.82;1.88;;;21.10;99.90;;;;;;4949728;28;20426;-72
2023/08/03 10:39:49;;;;;;;5.80;1.40;;;21.10;99.90;;;;;;4937767;28;20026;-73
2023/08/03 10:42:21;;;;;;;7.05;2.00;;;20.90;99.90;;;;;;4938354;28;20043;-72
2023/08/03 10:44:48;;;;;;;5.57;1.77;;;20.50;99.90;;;;;;4936689;28;20058;-72
2023/08/03 10:47:26;;;;;;;12.68;3.20;;;20.20;99.90;;;;;;4947531;28;20027;-72
2023/08/03 10:49:55;;;;;;;3.97;1.48;;;20.00;99.90;;;;;;4962849;28;20038;-73
2023/08/03 10:52:24;;;;;;;4.03;1.10;;;19.80;99.90;;;;;;4951672;28;20044;-74
2023/08/03 10:54:51;;;;;;;3.75;0.80;;;19.60;99.90;;;;;;4928442;28;20411;-72
2023/08/03 10:57:19;;;;;;;4.65;1.27;;;19.50;99.90;;;;;;4956899;28;20050;-75
2023/08/03 10:59:48;;;;;;;3.95;1.10;;;19.30;99.90;;;;;;4941085;28;20034;-73
2023/08/03 11:02:19;;;;;;;5.10;1.60;;;19.20;99.90;;;;;;4938856;28;20049;-73
2023/08/03 11:04:45;;;;;;;3.13;1.70;;;19.20;99.90;;;;;;4925200;28;20039;-71
2023/08/03 11:07:16;;;;;;;5.28;1.70;;;19.10;99.90;;;;;;4925760;28;20061;-73
2023/08/03 11:09:47;;;;;;;3.53;1.77;;;19.20;99.90;;;;;;4937349;28;20035;-72
2023/08/03 11:12:16;;;;;;;5.03;3.08;;;19.50;99.90;;;;;;4954830;28;20031;-73
2023/08/03 11:14:49;;;;;;;4.57;2.70;;;20.10;99.90;;;;;;4958848;28;20035;-72
2023/08/03 11:17:15;;;;;;;5.40;2.00;;;21.00;99.90;;;;;;4941454;28;20054;-73
2023/08/03 11:19:43;;;;;;;4.57;1.65;;;21.80;99.90;;;;;;4935822;28;20035;-72
2023/08/03 11:22:11;;;;;;;4.93;1.30;;;22.40;99.90;;;;;;4955636;28;20626;-86
2023/08/03 11:24:39;;;;;;;4.07;1.35;;;22.40;99.90;;;;;;4950775;28;20039;-73
2023/08/03 11:27:05;;;;;;;6.32;1.25;;;22.00;99.90;;;;;;4961064;28;20038;-73
2023/08/03 11:29:36;;;;;;;3.42;0.73;;;21.60;99.90;;;;;;4924648;28;20532;-72
2023/08/03 11:32:04;;;;;;;2.50;0.77;;;21.30;99.90;;;;;;4953371;28;20026;-73
2023/08/03 11:34:33;;;;;;;2.58;1.00;;;20.90;99.90;;;;;;4953443;28;20031;-73
2023/08/03 11:37:00;;;;;;;3.78;1.23;;;20.70;99.90;;;;;;4953359;28;20035;-73
2023/08/03 11:39:26;;;;;;;5.45;1.80;;;20.60;99.90;;;;;;4937473;28;20042;-73
2023/08/03 11:41:54;;;;;;;4.32;1.48;;;20.50;99.90;;;;;;4936938;28;20046;-73
2023/08/03 11:44:22;;;;;;;3.92;1.90;;;20.40;99.90;;;;;;4938751;28;20429;-73
2023/08/03 11:47:01;;;;;;;3.92;1.30;;;20.60;99.90;;;;;;4955133;28;20474;-73
2023/08/03 11:49:29;;;;;;;3.65;1.30;;;21.10;99.90;;;;;;4924276;28;20039;-73
2023/08/03 11:51:59;;;;;;;5.22;1.52;;;21.00;99.90;;;;;;4956291;28;21169;-73
2023/08/03 11:54:29;;;;;;;4.38;1.20;;;20.90;99.90;;;;;;4940969;28;20054;-73
2023/08/03 11:59:49;;;;;;;6.10;1.08;;;20.60;99.90;;;;;;4947736;28;20035;-73
2023/08/03 12:02:39;;;;;;;5.65;0.95;;;20.30;99.90;;;;;;4952356;28;20045;-73
2023/08/03 12:05:06;;;;;;;5.28;1.02;;;20.10;99.90;;;;;;4950472;28;20046;-74
2023/08/03 12:07:33;;;;;;;3.03;1.15;;;20.00;99.90;;;;;;4946653;28;20042;-74
2023/08/03 12:10:00;;;;;;;3.17;1.10;;;19.90;99.90;;;;;;4937848;28;20537;-74
2023/08/03 12:12:26;;;;;;;2.92;1.00;;;19.90;99.90;;;;;;4938949;28;20045;-75
2023/08/03 12:14:53;;;;;;;4.43;1.02;;;19.90;99.90;;;;;;4954021;28;20030;-74
2023/08/03 12:17:19;;;;;;;3.40;0.80;;;20.10;99.90;;;;;;4938816;28;20039;-74
2023/08/03 12:19:46;;;;;;;4.60;0.73;;;20.20;99.90;;;;;;4955865;28;20037;-75
2023/08/03 12:22:12;;;;;;;3.28;0.85;;;20.20;99.90;;;;;;4934261;28;20050;-74
2023/08/03 12:24:38;;;;;;;4.85;0.93;;;20.20;99.90;;;;;;4938781;28;20034;-74
2023/08/03 12:27:05;;;;;;;4.60;1.20;;;20.40;99.90;;;;;;4937138;28;20039;-75
2023/08/03 12:29:32;;;;;;;5.05;0.70;;;20.60;99.90;;;;;;4937495;28;20035;-75
2023/08/03 12:31:58;;;;;;;2.67;0.70;;;21.10;99.90;;;;;;4936620;28;20050;-75
2023/08/03 12:34:26;;;;;;;4.53;0.60;;;21.30;99.90;;;;;;4951992;28;20034;-75
2023/08/03 12:36:52;;;;;;;2.05;0.50;;;21.20;99.90;;;;;;4918944;28;20065;-82
2023/08/03 12:39:19;;;;;;;1.23;0.40;;;20.80;99.90;;;;;;4968425;28;20378;-73
2023/08/03 12:41:46;;;;;;;3.53;0.40;;;20.30;99.90;;;;;;4936995;28;20038;-73
2023/08/03 12:44:12;;;;;;;3.92;1.58;;;19.90;99.90;;;;;;4937001;28;20045;-73
2023/08/03 12:46:38;;;;;;;2.78;0.98;;;19.70;99.90;;;;;;4919690;28;20045;-73
2023/08/03 12:49:05;;;;;;;2.70;1.20;;;19.70;99.90;;;;;;4935890;28;20049;-73
2023/08/03 12:51:31;;;;;;;3.53;0.98;;;20.00;99.90;;;;;;4936546;28;20030;-73